createdAt,value
2022-10-13T00:01:23.111Z,0.22
2022-10-13T00:05:20.481Z,0.22
2022-10-13T00:09:20.902Z,0.22
2022-10-13T00:13:20.921Z,0.22
2022-10-13T00:17:20.839Z,0.22
2022-10-13T00:21:20.942Z,0.22
2022-10-13T00:25:20.441Z,0.22
2022-10-13T00:29:26.798Z,0.22
2022-10-13T00:33:20.496Z,0.22
2022-10-13T00:37:20.503Z,0.22
2022-10-13T00:41:20.285Z,0.19
2022-10-13T00:45:20.893Z,0.19
2022-10-13T00:49:20.235Z,0.19
2022-10-13T00:53:20.719Z,0.19
2022-10-13T00:57:20.102Z,0.19
2022-10-13T01:01:25.262Z,0.19
2022-10-13T01:05:20.347Z,0.19
2022-10-13T01:09:20.848Z,0.19
2022-10-13T01:13:20.697Z,0.19
2022-10-13T01:17:20.097Z,0.19
2022-10-13T01:21:20.640Z,0.19
2022-10-13T01:25:20.051Z,0.19
2022-10-13T01:29:20.935Z,0.19
2022-10-13T01:33:20.722Z,0.19
2022-10-13T01:37:20.741Z,0.19
2022-10-13T01:41:22.159Z,0.19
2022-10-13T01:45:20.938Z,0.19
2022-10-13T01:49:20.364Z,0.19
2022-10-13T01:53:20.921Z,0.19
2022-10-13T01:57:20.640Z,0.19
2022-10-13T02:01:23.652Z,0.19
2022-10-13T02:05:20.621Z,0.19
2022-10-13T02:09:20.669Z,0.19
2022-10-13T02:13:20.863Z,0.19
2022-10-13T02:17:20.033Z,0.19
2022-10-13T02:21:20.456Z,0.19
2022-10-13T02:25:20.060Z,0.19
2022-10-13T02:29:21.113Z,0.19
2022-10-13T02:33:20.374Z,0.19
2022-10-13T02:37:20.734Z,0.19
2022-10-13T02:41:19.983Z,0.19
2022-10-13T02:45:20.057Z,0.19
2022-10-13T02:49:20.595Z,0.19
2022-10-13T02:53:20.810Z,0.19
2022-10-13T02:57:20.100Z,0.19
2022-10-13T03:01:23.348Z,0.19
2022-10-13T03:05:20.108Z,0.19
2022-10-13T03:09:20.310Z,0.19
2022-10-13T03:13:20.727Z,0.19
2022-10-13T03:17:24.816Z,0.19
2022-10-13T03:21:20.412Z,0.19
2022-10-13T03:25:20.516Z,0.19
2022-10-13T03:29:20.385Z,0.19
2022-10-13T03:33:20.444Z,0.19
2022-10-13T03:37:20.767Z,0.19
2022-10-13T03:41:20.130Z,0.19
2022-10-13T03:45:20.595Z,0.19
2022-10-13T03:49:20.421Z,0.19
2022-10-13T03:53:20.528Z,0.19
2022-10-13T03:57:20.054Z,0.19
2022-10-13T04:01:23.803Z,0.19
2022-10-13T04:05:19.891Z,0.19
2022-10-13T04:09:20.075Z,0.19
2022-10-13T04:13:27.207Z,0.19
2022-10-13T04:17:20.613Z,0.19
2022-10-13T04:21:20.955Z,0.19
2022-10-13T04:25:19.986Z,0.19
2022-10-13T04:29:20.743Z,0.19
2022-10-13T04:33:20.126Z,0.19
2022-10-13T04:37:20.342Z,0.19
2022-10-13T04:41:20.602Z,0.19
2022-10-13T04:45:19.914Z,0.19
2022-10-13T04:49:20.076Z,0.19
2022-10-13T04:53:20.761Z,0.19
2022-10-13T04:57:20.503Z,0.19
2022-10-13T05:01:28.910Z,0.19
2022-10-13T05:05:20.700Z,0.19
2022-10-13T05:09:20.870Z,0.19
2022-10-13T05:13:20.564Z,0.19
2022-10-13T05:17:20.694Z,0.19
2022-10-13T05:21:20.771Z,0.19
2022-10-13T05:25:20.946Z,0.19
2022-10-13T05:29:21.466Z,0.19
2022-10-13T05:33:27.465Z,0.19
2022-10-13T05:37:19.939Z,0.19
2022-10-13T05:41:20.345Z,0.19
2022-10-13T05:45:20.914Z,0.19
2022-10-13T05:49:19.989Z,0.19
2022-10-13T05:53:20.158Z,0.19
2022-10-13T05:57:20.516Z,0.19
2022-10-13T06:01:20.187Z,0.19
2022-10-13T06:05:20.042Z,0.19
2022-10-13T06:09:20.081Z,0.19
2022-10-13T06:13:20.518Z,0.19
2022-10-13T06:17:20.757Z,0.19
2022-10-13T06:21:20.554Z,0.19
2022-10-13T06:25:20.093Z,0.19
2022-10-13T06:29:25.006Z,0.19
2022-10-13T06:33:20.868Z,0.19
2022-10-13T06:37:26.201Z,0.19
2022-10-13T06:41:21.030Z,0.19
2022-10-13T06:45:20.063Z,0.19
2022-10-13T06:49:20.828Z,0.19
2022-10-13T06:53:20.217Z,0.19
2022-10-13T06:57:20.874Z,0.19
2022-10-13T07:01:23.507Z,0.19
2022-10-13T07:05:20.456Z,0.19
2022-10-13T07:09:20.955Z,0.19
2022-10-13T07:13:22.856Z,0.19
2022-10-13T07:17:21.198Z,0.19
2022-10-13T07:21:26.030Z,0.19
2022-10-13T07:25:20.136Z,0.19
2022-10-13T07:29:20.966Z,0.19
2022-10-13T07:33:21.009Z,0.19
2022-10-13T07:37:20.300Z,0.19
2022-10-13T07:41:20.262Z,0.19
2022-10-13T07:45:20.254Z,0.19
2022-10-13T07:49:24.984Z,0.09
2022-10-13T07:53:20.186Z,0.12
2022-10-13T07:57:20.054Z,0.12
2022-10-13T08:01:23.209Z,0.12
2022-10-13T08:05:20.164Z,0.12
2022-10-13T08:09:20.023Z,0.12
2022-10-13T08:13:21.121Z,0.12
2022-10-13T08:17:25.170Z,0.12
2022-10-13T08:22:24.708Z,0.12
2022-10-13T08:25:20.224Z,0.12
2022-10-13T08:29:45.438Z,0.12
2022-10-13T08:33:20.371Z,0.12
2022-10-13T08:37:20.906Z,0.12
2022-10-13T08:41:20.789Z,0.12
2022-10-13T08:46:48.969Z,0.12
2022-10-13T08:49:20.626Z,0.12
2022-10-13T08:53:20.204Z,0.12
2022-10-13T08:57:20.501Z,0.16
2022-10-13T09:01:22.695Z,0.16
2022-10-13T09:05:20.097Z,0.39
2022-10-13T09:09:20.609Z,0.5
2022-10-13T09:13:20.898Z,0.5
2022-10-13T09:17:20.466Z,0.56
2022-10-13T09:21:20.786Z,0.56
2022-10-13T09:25:20.508Z,0.56
2022-10-13T09:29:21.302Z,0.56
2022-10-13T09:33:20.737Z,0.56
2022-10-13T09:37:20.051Z,0.56
2022-10-13T09:41:20.580Z,0.56
2022-10-13T09:45:24.068Z,0.56
2022-10-13T09:49:20.665Z,0.56
2022-10-13T09:53:20.479Z,0.56
2022-10-13T09:57:20.083Z,0.56
2022-10-13T10:01:23.425Z,0.56
2022-10-13T10:05:20.840Z,0.56
2022-10-13T10:09:48.022Z,0.56
2022-10-13T10:13:24.209Z,0.56
2022-10-13T10:17:20.995Z,0.56
2022-10-13T10:21:20.663Z,0.19
2022-10-13T10:25:20.340Z,0.19
2022-10-13T10:29:20.910Z,0.45
2022-10-13T10:33:20.663Z,0.54
2022-10-13T10:37:21.464Z,0.54
2022-10-13T10:41:20.319Z,0.6
2022-10-13T10:45:20.308Z,0.6
2022-10-13T10:49:20.586Z,0.6
2022-10-13T10:53:20.293Z,0.6
2022-10-13T10:57:21.155Z,0.6
2022-10-13T11:01:24.148Z,0.6
2022-10-13T11:05:28.008Z,0.6
2022-10-13T11:09:20.396Z,0.6
2022-10-13T11:13:21.170Z,0.6
2022-10-13T11:17:21.255Z,0.6
2022-10-13T11:21:21.258Z,0.6
2022-10-13T11:25:21.300Z,0.6
2022-10-13T11:29:21.124Z,0.6
2022-10-13T11:33:20.218Z,0.6
2022-10-13T11:37:20.004Z,0.6
2022-10-13T11:41:20.009Z,0.6
2022-10-13T11:45:20.808Z,0.19
2022-10-13T11:49:20.481Z,0.21
2022-10-13T11:53:20.283Z,0.21
2022-10-13T11:57:24.712Z,0.21
2022-10-13T12:01:27.518Z,0.21
2022-10-13T12:05:20.633Z,0.21
2022-10-13T12:09:20.691Z,0.21
2022-10-13T12:13:20.454Z,0.21
2022-10-13T12:17:28.620Z,0.21
2022-10-13T12:21:20.481Z,0.21
2022-10-13T12:25:20.837Z,0.21
2022-10-13T12:29:21.039Z,0.21
2022-10-13T12:33:20.964Z,0.21
2022-10-13T12:37:20.534Z,0.21
2022-10-13T12:41:20.471Z,0.21
2022-10-13T12:45:25.472Z,0.21
2022-10-13T12:53:20.515Z,0.21
2022-10-13T12:57:20.123Z,0.21
2022-10-13T13:01:23.407Z,0.21
2022-10-13T13:05:20.048Z,0.21
2022-10-13T13:09:20.289Z,0.21
2022-10-13T13:13:20.196Z,0.21
2022-10-13T13:17:45.355Z,0.21
2022-10-13T13:21:20.334Z,0.21
2022-10-13T13:25:47.143Z,0.21
2022-10-13T13:29:20.759Z,0.21
2022-10-13T13:33:20.664Z,0.21
2022-10-13T13:37:21.149Z,0.21
2022-10-13T13:41:26.593Z,0.21
2022-10-13T13:45:20.158Z,0.21
2022-10-13T13:49:20.421Z,0.21
2022-10-13T13:53:20.147Z,0.16
2022-10-13T13:57:22.012Z,0.16
2022-10-13T14:01:24.874Z,0.42
2022-10-13T14:05:20.565Z,0.53
2022-10-13T14:09:20.935Z,0.53
2022-10-13T14:13:20.129Z,0.59
2022-10-13T14:17:20.136Z,0.63
2022-10-13T14:21:21.047Z,0.63
2022-10-13T14:25:20.639Z,0.66
2022-10-13T14:29:26.079Z,0.69
2022-10-13T14:33:20.670Z,0.69
2022-10-13T14:37:23.122Z,0.7
2022-10-13T14:41:20.713Z,0.73
2022-10-13T14:45:20.259Z,0.73
2022-10-13T14:49:21.141Z,0.75
2022-10-13T14:53:20.829Z,0.77
2022-10-13T14:57:20.186Z,0.77
2022-10-13T15:01:23.116Z,0.78
2022-10-13T15:05:20.908Z,0.8
2022-10-13T15:09:25.557Z,0.8
2022-10-13T15:13:20.475Z,0.81
2022-10-13T15:17:20.186Z,0.82
2022-10-13T15:21:20.519Z,0.82
2022-10-13T15:25:20.133Z,0.83
2022-10-13T15:29:20.879Z,0.83
2022-10-13T15:33:21.321Z,0.83
2022-10-13T15:37:20.447Z,0.84
2022-10-13T15:41:20.543Z,0.85
2022-10-13T15:45:54.201Z,0.85
2022-10-13T15:49:20.730Z,0.86
2022-10-13T15:53:21.572Z,0.87
2022-10-13T15:57:20.737Z,0.87
2022-10-13T16:01:23.481Z,0.87
2022-10-13T16:05:22.764Z,0.88
2022-10-13T16:09:20.384Z,0.88
2022-10-13T16:13:23.605Z,0.89
2022-10-13T16:17:21.108Z,0.9
2022-10-13T16:21:20.151Z,0.9
2022-10-13T16:25:20.570Z,0.9
2022-10-13T16:29:20.784Z,0.91
2022-10-13T16:33:20.451Z,0.91
2022-10-13T16:37:20.976Z,0.91
2022-10-13T16:41:20.373Z,0.91
2022-10-13T16:45:35.479Z,0.91
2022-10-13T16:49:20.725Z,0.91
2022-10-13T16:53:20.933Z,0.91
2022-10-13T16:57:21.321Z,0.91
2022-10-13T17:01:26.050Z,0.91
2022-10-13T17:05:24.101Z,0.91
2022-10-13T17:09:20.826Z,0.91
2022-10-13T17:13:20.734Z,0.91
2022-10-13T17:17:21.335Z,0.91
2022-10-13T17:21:20.948Z,0.91
2022-10-13T17:25:21.304Z,0.91
2022-10-13T17:29:20.883Z,0.91
2022-10-13T17:33:26.877Z,0.91
2022-10-13T17:37:20.413Z,0.91
2022-10-13T17:41:22.410Z,0.91
2022-10-13T17:45:20.926Z,0.91
2022-10-13T17:49:22.488Z,0.91
2022-10-13T17:53:20.196Z,0.91
2022-10-13T17:57:21.033Z,0.91
2022-10-13T18:01:57.094Z,0.91
2022-10-13T18:05:20.633Z,0.91
2022-10-13T18:09:21.016Z,0.91
2022-10-13T18:13:20.670Z,0.91
2022-10-13T18:17:21.081Z,0.91
2022-10-13T18:21:20.661Z,0.91
2022-10-13T18:25:20.203Z,0.91
2022-10-13T18:29:21.460Z,0.91
2022-10-13T18:33:20.631Z,0.91
2022-10-13T18:37:20.605Z,0.91
2022-10-13T18:41:20.398Z,0.91
2022-10-13T18:45:20.679Z,0.91
2022-10-13T18:49:20.622Z,0.91
2022-10-13T18:53:20.897Z,0.91
2022-10-13T18:57:21.271Z,0.91
2022-10-13T19:01:23.607Z,0.91
2022-10-13T19:05:20.756Z,0.91
2022-10-13T19:09:20.045Z,0.91
2022-10-13T19:13:20.565Z,0.91
2022-10-13T19:17:24.958Z,0.91
2022-10-13T19:21:20.717Z,0.91
2022-10-13T19:25:20.137Z,0.91
2022-10-13T19:29:20.973Z,0.91
2022-10-13T19:33:20.599Z,0.91
2022-10-13T19:37:21.709Z,0.91
2022-10-13T19:41:27.223Z,0.91
2022-10-13T19:45:20.232Z,0.91
2022-10-13T19:49:20.913Z,0.91
2022-10-13T19:53:20.830Z,0.91
2022-10-13T19:57:21.010Z,0.91
2022-10-13T20:01:24.101Z,0.91
2022-10-13T20:05:25.292Z,0.91
2022-10-13T20:09:20.815Z,0.91
2022-10-13T20:13:20.857Z,0.91
2022-10-13T20:17:20.930Z,0.91
2022-10-13T20:21:20.246Z,0.91
2022-10-13T20:25:20.163Z,0.91
2022-10-13T20:29:27.829Z,0.91
2022-10-13T20:33:20.728Z,0.91
2022-10-13T20:37:24.319Z,0.91
2022-10-13T20:41:20.812Z,0.91
2022-10-13T20:45:20.908Z,0.91
2022-10-13T20:49:50.488Z,0.91
2022-10-13T20:53:20.057Z,0.91
2022-10-13T20:57:21.145Z,0.91
2022-10-13T21:01:23.552Z,0.91
2022-10-13T21:05:20.541Z,0.91
2022-10-13T21:09:20.857Z,0.91
2022-10-13T21:13:20.835Z,0.91
2022-10-13T21:17:20.934Z,0.91
2022-10-13T21:21:20.241Z,0.91
2022-10-13T21:25:20.015Z,0.91
2022-10-13T21:29:21.273Z,0.91
2022-10-13T21:33:20.624Z,0.91
2022-10-13T21:37:21.005Z,0.91
2022-10-13T21:41:27.438Z,0.91
2022-10-13T21:45:20.371Z,0.91
2022-10-13T21:49:20.091Z,0.91
2022-10-13T21:53:20.426Z,0.91
2022-10-13T21:57:20.696Z,0.91
2022-10-13T22:13:21.012Z,0.91
2022-10-13T22:15:20.728Z,0.91
2022-10-13T22:17:21.115Z,0.91
2022-10-13T22:19:20.263Z,0.91
2022-10-13T22:21:20.365Z,0.91
2022-10-13T22:23:26.993Z,0.91
2022-10-13T22:25:20.660Z,0.91
2022-10-13T22:27:21.008Z,0.91
2022-10-13T22:29:22.922Z,0.91
2022-10-13T22:31:20.684Z,0.91
2022-10-13T22:33:20.697Z,0.91
2022-10-13T22:35:20.617Z,0.91
2022-10-13T22:37:21.227Z,0.91
2022-10-13T22:39:20.051Z,0.91
2022-10-13T22:41:20.987Z,0.91
2022-10-13T22:43:20.803Z,0.91
2022-10-13T22:45:20.660Z,0.91
2022-10-13T22:47:21.417Z,0.91
2022-10-13T22:49:25.741Z,0.91
2022-10-13T22:51:22.168Z,0.91
2022-10-13T22:53:20.855Z,0.91
2022-10-13T22:55:20.394Z,0.91
2022-10-13T22:57:20.642Z,0.91
2022-10-13T22:59:20.768Z,0.91
2022-10-13T23:01:23.598Z,0.91
2022-10-13T23:03:20.511Z,0.91
2022-10-13T23:05:20.309Z,0.91
2022-10-13T23:07:21.144Z,0.91
2022-10-13T23:09:20.805Z,0.91
2022-10-13T23:11:20.111Z,0.91
2022-10-13T23:13:20.821Z,0.91
2022-10-13T23:15:20.635Z,0.91
2022-10-13T23:17:21.199Z,0.91
2022-10-13T23:19:20.313Z,0.91
2022-10-13T23:21:20.469Z,0.91
2022-10-13T23:23:19.966Z,0.91
2022-10-13T23:25:20.778Z,0.91
2022-10-13T23:27:20.762Z,0.91
2022-10-13T23:29:21.410Z,0.91
2022-10-13T23:31:20.510Z,0.91
2022-10-13T23:33:26.269Z,0.91
2022-10-13T23:35:20.082Z,0.91
2022-10-13T23:37:20.534Z,0.91
2022-10-13T23:39:20.527Z,0.91
2022-10-13T23:41:20.822Z,0.91
2022-10-13T23:43:20.922Z,0.91
2022-10-13T23:45:20.651Z,0.91
2022-10-13T23:47:20.271Z,0.91
2022-10-13T23:49:20.629Z,0.91
2022-10-13T23:51:20.145Z,0.91
2022-10-13T23:53:20.680Z,0.91
2022-10-13T23:55:20.824Z,0.91
2022-10-13T23:57:20.589Z,0.91
2022-10-13T23:59:20.625Z,0.91
